createdAt,value
2022-09-07T05:00:21.321Z,17.23
2022-09-07T05:02:35.699Z,17.280001
2022-09-07T05:04:51.100Z,17.4
2022-09-07T05:07:08.379Z,17.58
2022-09-07T05:09:23.783Z,17.77
2022-09-07T05:11:38.098Z,17.969999
2022-09-07T05:13:52.475Z,18.17
2022-09-07T05:16:06.838Z,18.370001
2022-09-07T05:18:21.230Z,18.549999
2022-09-07T05:20:35.607Z,18.73
2022-09-07T05:22:49.955Z,18.9
2022-09-07T05:25:04.349Z,19.030001
2022-09-07T05:27:18.704Z,19.120001
2022-09-07T05:31:50.401Z,19.25
2022-09-07T05:36:22.055Z,19.370001
2022-09-07T05:38:37.385Z,19.4
2022-09-07T05:40:51.729Z,19.42
2022-09-07T05:43:06.131Z,19.450001
2022-09-07T05:45:20.482Z,19.48
2022-09-07T05:47:34.769Z,19.5
2022-09-07T05:49:50.394Z,19.52
2022-09-07T05:52:05.429Z,19.51
2022-09-07T05:54:19.766Z,19.48
2022-09-07T05:56:34.118Z,19.469999
2022-09-07T05:58:48.455Z,19.49
2022-09-07T06:01:02.785Z,19.52
2022-09-07T06:03:17.234Z,19.549999
2022-09-07T06:05:32.471Z,19.58
2022-09-07T06:07:46.818Z,19.620001
2022-09-07T06:12:18.449Z,19.700001
2022-09-07T06:14:32.803Z,19.76
2022-09-07T06:16:47.173Z,19.790001
2022-09-07T06:19:01.504Z,19.83
2022-09-07T06:21:15.883Z,19.860001
2022-09-07T06:23:30.353Z,19.870001
2022-09-07T06:25:44.555Z,19.870001
2022-09-07T06:27:59.110Z,19.870001
2022-09-07T06:30:13.550Z,19.860001
2022-09-07T06:32:43.397Z,19.860001
2022-09-07T06:34:45.209Z,19.85
2022-09-07T06:36:59.575Z,19.85
2022-09-07T06:39:13.973Z,19.82
2022-09-07T06:43:46.069Z,19.76
2022-09-07T06:48:17.372Z,19.690001
2022-09-07T06:50:32.683Z,19.66
2022-09-07T06:55:04.469Z,19.780001
2022-09-07T06:57:18.762Z,19.889999
2022-09-07T06:59:33.135Z,19.969999
2022-09-07T07:01:47.516Z,20.040001
2022-09-07T07:04:01.824Z,20.129999
2022-09-07T07:06:16.275Z,20.209999
2022-09-07T07:08:30.752Z,20.299999
2022-09-07T07:10:45.046Z,20.35
2022-09-07T07:12:59.417Z,20.42
2022-09-07T07:15:13.815Z,20.48
2022-09-07T07:17:28.123Z,20.51
2022-09-07T07:19:42.552Z,20.52
2022-09-07T07:24:14.236Z,20.530001
2022-09-07T07:26:28.657Z,20.540001
2022-09-07T07:29:14.716Z,20.59
2022-09-07T07:31:00.305Z,20.639999
2022-09-07T07:33:17.621Z,20.67
2022-09-07T07:35:32.002Z,20.690001
2022-09-07T07:37:46.336Z,20.700001
2022-09-07T07:40:16.768Z,20.700001
2022-09-07T07:42:17.986Z,20.719999
2022-09-07T07:44:32.386Z,20.74
2022-09-07T07:46:46.792Z,20.780001
2022-09-07T07:49:01.078Z,20.82
2022-09-07T07:51:15.447Z,20.85
2022-09-07T07:53:45.165Z,20.9
2022-09-07T07:55:47.126Z,20.959999
2022-09-07T07:58:01.533Z,21.02
2022-09-07T08:00:23.611Z,21.07
2022-09-07T08:02:33.186Z,21.120001
2022-09-07T08:04:47.517Z,21.15
2022-09-07T08:07:05.781Z,21.17
2022-09-07T08:09:19.202Z,21.200001
2022-09-07T08:11:34.557Z,21.26
2022-09-07T08:13:48.922Z,21.32
2022-09-07T08:16:03.451Z,21.370001
2022-09-07T08:18:17.667Z,21.43
2022-09-07T08:20:32.072Z,21.49
2022-09-07T08:22:46.432Z,21.549999
2022-09-07T08:25:00.752Z,21.6
2022-09-07T08:27:15.124Z,21.65
2022-09-07T08:29:33.444Z,21.690001
2022-09-07T08:31:44.879Z,21.719999
2022-09-07T08:33:59.192Z,21.75
2022-09-07T08:36:13.538Z,21.74
2022-09-07T08:38:27.989Z,21.700001
2022-09-07T08:40:42.349Z,21.68
2022-09-07T08:42:56.657Z,21.67
2022-09-07T08:45:10.999Z,21.68
2022-09-07T08:47:25.359Z,21.700001
2022-09-07T08:49:39.704Z,21.77
2022-09-07T08:51:54.047Z,21.84
2022-09-07T08:54:08.478Z,21.85
2022-09-07T08:56:22.759Z,21.879999
2022-09-07T08:58:52.101Z,21.93
2022-09-07T09:03:32.128Z,21.91
2022-09-07T09:05:33.741Z,21.9
2022-09-07T09:07:48.035Z,21.91
2022-09-07T09:10:02.422Z,21.91
2022-09-07T09:12:16.733Z,21.9
2022-09-07T09:16:45.427Z,21.99
2022-09-07T09:18:59.785Z,22.07
2022-09-07T09:21:14.247Z,22.15
2022-09-07T09:23:28.585Z,22.23
2022-09-07T09:25:42.963Z,22.32
2022-09-07T09:27:57.414Z,22.360001
2022-09-07T09:30:11.753Z,22.360001
2022-09-07T09:32:26.076Z,22.379999
2022-09-07T09:34:40.445Z,22.450001
2022-09-07T09:36:54.847Z,22.540001
2022-09-07T09:39:09.282Z,22.6
2022-09-07T09:41:23.688Z,22.690001
2022-09-07T09:43:38.012Z,22.83
2022-09-07T09:48:09.653Z,23.110001
2022-09-07T09:52:47.867Z,23.15
2022-09-07T09:55:12.036Z,23.190001
2022-09-07T09:57:15.994Z,23.219999
2022-09-07T10:04:09.477Z,23.200001
2022-09-07T10:06:22.471Z,23.23
2022-09-07T10:08:36.813Z,23.33
2022-09-07T10:10:51.151Z,23.42
2022-09-07T10:13:05.499Z,23.5
2022-09-07T10:15:19.861Z,23.58
2022-09-07T10:17:34.224Z,23.66
2022-09-07T10:19:48.582Z,23.77
2022-09-07T10:22:02.940Z,23.889999
2022-09-07T10:24:17.281Z,24
2022-09-07T10:26:31.729Z,23.969999
2022-09-07T10:31:03.395Z,23.709999
2022-09-07T10:33:20.823Z,23.620001
2022-09-07T10:35:35.171Z,23.65
2022-09-07T10:37:49.512Z,23.719999
2022-09-07T10:40:03.941Z,23.719999
2022-09-07T10:42:18.281Z,23.719999
2022-09-07T10:44:33.490Z,23.74
2022-09-07T10:46:56.610Z,23.799999
2022-09-07T10:49:05.045Z,23.82
2022-09-07T10:51:19.508Z,23.870001
2022-09-07T10:53:41.157Z,23.940001
2022-09-07T10:55:50.399Z,24.02
2022-09-07T10:58:04.691Z,24.09
2022-09-07T11:00:19.141Z,24.120001
2022-09-07T11:02:33.649Z,24.139999
2022-09-07T11:04:47.924Z,24.190001
2022-09-07T11:07:02.417Z,24.26
2022-09-07T11:09:19.719Z,24.360001
2022-09-07T11:14:11.788Z,24.48
2022-09-07T11:16:08.348Z,24.49
2022-09-07T11:18:25.245Z,24.530001
2022-09-07T11:20:39.565Z,24.629999
2022-09-07T11:22:53.900Z,24.77
2022-09-07T11:27:25.540Z,24.870001
2022-09-07T11:29:41.027Z,24.9
2022-09-07T11:31:55.437Z,24.950001
2022-09-07T11:34:25.404Z,24.98
2022-09-07T11:36:27.074Z,25.030001
2022-09-07T11:38:41.430Z,25.08
2022-09-07T11:40:55.784Z,25.129999
2022-09-07T11:43:11.498Z,25.209999
2022-09-07T11:45:24.572Z,25.27
2022-09-07T11:47:38.928Z,25.26
2022-09-07T11:49:56.086Z,25.280001
2022-09-07T11:52:08.632Z,25.280001
2022-09-07T11:54:22.997Z,25.309999
2022-09-07T11:56:37.337Z,25.34
2022-09-07T11:58:53.681Z,25.35
2022-09-07T12:01:08.041Z,25.309999
2022-09-07T12:03:22.929Z,25.280001
2022-09-07T12:05:36.909Z,25.26
2022-09-07T12:07:51.237Z,25.209999
2022-09-07T12:10:05.647Z,25.139999
2022-09-07T12:12:20.070Z,25.18
2022-09-07T12:14:34.505Z,25.41
2022-09-07T12:16:48.928Z,25.709999
2022-09-07T12:19:03.339Z,26.030001
2022-09-07T12:21:17.811Z,26.290001
2022-09-07T12:23:32.141Z,26.41
2022-09-07T12:25:46.458Z,26.51
2022-09-07T12:28:00.800Z,26.68
2022-09-07T12:30:15.148Z,26.809999
2022-09-07T12:34:46.834Z,27.27
2022-09-07T12:37:01.165Z,27.42
2022-09-07T12:39:18.489Z,27.52
2022-09-07T12:41:32.830Z,27.52
2022-09-07T12:43:47.171Z,27.620001
2022-09-07T12:46:02.479Z,27.75
2022-09-07T12:48:16.959Z,27.91
2022-09-07T12:50:31.410Z,27.99
2022-09-07T12:52:48.740Z,28.01
2022-09-07T12:55:26.408Z,28.030001
2022-09-07T12:57:35.696Z,28.059999
2022-09-07T12:59:36.708Z,28
2022-09-07T13:01:51.190Z,27.950001
2022-09-07T13:04:05.695Z,28.040001
2022-09-07T13:07:01.567Z,28.23
2022-09-07T13:08:37.436Z,28.469999
2022-09-07T13:10:51.848Z,28.68
2022-09-07T13:13:06.370Z,28.889999
2022-09-07T13:15:24.097Z,29.049999
2022-09-07T13:17:36.159Z,29.07
2022-09-07T13:19:50.515Z,29.030001
2022-09-07T13:22:04.880Z,29.02
2022-09-07T13:24:47.930Z,28.91
2022-09-07T13:26:36.678Z,28.68
2022-09-07T13:28:51.023Z,28.469999
2022-09-07T13:31:05.505Z,28.33
2022-09-07T13:33:20.810Z,28.26
2022-09-07T13:35:35.165Z,28.219999
2022-09-07T13:37:49.576Z,28.200001
2022-09-07T13:40:10.931Z,28.219999
2022-09-07T13:42:25.861Z,28.27
2022-09-07T13:44:41.219Z,28.41
2022-09-07T13:46:55.568Z,28.57
2022-09-07T13:49:09.927Z,28.719999
2022-09-07T13:51:24.287Z,28.799999
2022-09-07T13:53:38.645Z,28.85
2022-09-07T13:55:53.054Z,28.82
2022-09-07T13:58:07.391Z,28.690001
2022-09-07T14:00:21.768Z,28.610001
2022-09-07T14:02:36.182Z,28.52
2022-09-07T14:04:50.491Z,28.26
2022-09-07T14:07:04.965Z,27.99
2022-09-07T14:09:19.331Z,27.870001
2022-09-07T14:11:33.760Z,27.92
2022-09-07T14:13:48.149Z,28.030001
2022-09-07T14:16:02.504Z,28.129999
2022-09-07T14:18:16.916Z,28.17
2022-09-07T14:20:31.242Z,28.15
2022-09-07T14:22:49.454Z,28.129999
2022-09-07T14:25:02.316Z,28.129999
2022-09-07T14:27:17.647Z,28.190001
2022-09-07T14:29:32.054Z,28.200001
2022-09-07T14:31:46.694Z,28.17
2022-09-07T14:34:02.040Z,28.15
2022-09-07T14:36:37.292Z,28.16
2022-09-07T14:40:51.658Z,28.43
2022-09-07T14:43:05.486Z,28.719999
2022-09-07T14:45:19.858Z,29.01
2022-09-07T14:47:34.236Z,29.26
2022-09-07T14:49:48.858Z,29.52
2022-09-07T14:52:04.257Z,29.719999
2022-09-07T14:54:18.676Z,29.73
2022-09-07T14:56:33.366Z,29.68
2022-09-07T14:58:47.792Z,29.629999
2022-09-07T15:03:19.424Z,29.48
2022-09-07T15:05:34.495Z,29.459999
2022-09-07T15:07:48.198Z,29.43
2022-09-07T15:10:02.546Z,29.360001
2022-09-07T15:12:17.659Z,29.27
2022-09-07T15:14:34.413Z,29.139999
2022-09-07T15:17:42.386Z,29.01
2022-09-07T15:19:07.026Z,28.889999
2022-09-07T15:21:21.368Z,28.780001
2022-09-07T15:23:35.723Z,28.709999
2022-09-07T15:25:51.049Z,28.66
2022-09-07T15:28:04.467Z,28.610001
2022-09-07T15:30:18.765Z,28.59
2022-09-07T15:32:34.155Z,28.610001
2022-09-07T15:34:47.456Z,28.68
2022-09-07T15:37:02.705Z,28.809999
2022-09-07T15:39:19.702Z,28.99
2022-09-07T15:41:35.152Z,29.15
2022-09-07T15:43:51.432Z,29.23
2022-09-07T15:46:06.911Z,29.200001
2022-09-07T15:48:22.161Z,29.1
2022-09-07T15:50:36.615Z,28.93
2022-09-07T15:52:51.961Z,28.75
2022-09-07T15:55:07.276Z,28.559999
2022-09-07T15:59:39.009Z,28.18
2022-09-07T16:01:53.859Z,28.059999
2022-09-07T16:04:09.069Z,28.01
2022-09-07T16:06:23.305Z,28.09
2022-09-07T16:08:37.754Z,28.24
2022-09-07T16:10:53.865Z,28.389999
2022-09-07T16:13:12.020Z,28.469999
2022-09-07T16:15:26.940Z,28.51
2022-09-07T16:17:47.062Z,28.530001
2022-09-07T16:19:56.597Z,28.549999
2022-09-07T16:23:13.106Z,28.540001
2022-09-07T16:24:29.247Z,28.57
2022-09-07T16:26:43.619Z,28.6
2022-09-07T16:28:58.031Z,28.52
2022-09-07T16:31:12.681Z,28.32
2022-09-07T16:33:32.947Z,28.059999
2022-09-07T16:35:44.035Z,27.809999
2022-09-07T16:40:17.225Z,27.35
2022-09-07T16:42:37.086Z,27.1
2022-09-07T16:44:47.494Z,26.889999
2022-09-07T16:47:01.934Z,26.700001
2022-09-07T16:49:17.375Z,26.52
2022-09-07T16:51:31.775Z,26.370001
2022-09-07T16:53:47.901Z,26.23
2022-09-07T16:56:03.414Z,26.139999
2022-09-07T17:00:35.927Z,26.040001
2022-09-07T17:02:50.387Z,26.049999
2022-09-07T17:05:04.777Z,26.08
2022-09-07T17:07:19.140Z,26.09
2022-09-07T17:09:33.487Z,26.1
2022-09-07T17:11:47.806Z,26.1
2022-09-07T17:14:02.216Z,26.09
2022-09-07T17:16:16.608Z,26.09
2022-09-07T17:20:48.364Z,26.030001
2022-09-07T17:23:02.736Z,25.98
2022-09-07T17:25:17.130Z,25.950001
2022-09-07T17:27:31.495Z,25.93
2022-09-07T17:29:45.862Z,25.9
2022-09-07T17:34:18.689Z,25.82
2022-09-07T17:36:33.314Z,25.76
2022-09-07T17:41:04.862Z,25.639999
2022-09-07T17:45:37.087Z,25.450001
2022-09-07T17:47:51.467Z,25.309999
2022-09-07T17:50:06.780Z,25.15
2022-09-07T17:52:20.362Z,24.98
2022-09-07T17:54:34.782Z,24.82
2022-09-07T17:56:50.208Z,24.690001
2022-09-07T18:01:22.938Z,24.469999
2022-09-07T18:03:36.289Z,24.370001
2022-09-07T18:05:50.656Z,24.27
2022-09-07T18:08:05.058Z,24.18
2022-09-07T18:10:19.390Z,24.08
2022-09-07T18:12:33.744Z,23.99
2022-09-07T18:14:48.125Z,23.91
2022-09-07T18:17:02.535Z,23.83
2022-09-07T18:19:18.079Z,23.74
2022-09-07T18:21:31.274Z,23.66
2022-09-07T18:23:45.600Z,23.57
2022-09-07T18:25:59.957Z,23.5
2022-09-07T18:30:31.694Z,23.33
2022-09-07T18:32:46.156Z,23.27
2022-09-07T18:35:00.523Z,23.200001
2022-09-07T18:37:14.873Z,23.15
2022-09-07T18:39:29.395Z,23.08
2022-09-07T18:41:46.702Z,23
2022-09-07T18:44:02.561Z,22.92
2022-09-07T18:46:19.413Z,22.84
2022-09-07T18:48:33.735Z,22.780001
2022-09-07T18:50:48.098Z,22.719999
2022-09-07T18:53:14.268Z,22.65
2022-09-07T18:55:19.749Z,22.57
2022-09-07T18:57:34.212Z,22.5
2022-09-07T18:59:48.552Z,22.459999
2022-09-07T19:02:07.988Z,22.43
2022-09-07T19:04:19.971Z,22.43
2022-09-07T19:06:35.254Z,22.42
2022-09-07T19:08:49.638Z,22.41
2022-09-07T19:11:03.964Z,22.379999
2022-09-07T19:13:18.312Z,22.34
2022-09-07T19:15:36.327Z,22.33
2022-09-07T19:17:48.103Z,22.32
2022-09-07T19:20:03.807Z,22.33
2022-09-07T19:22:19.460Z,22.34
2022-09-07T19:24:34.174Z,22.360001
2022-09-07T19:26:48.483Z,22.360001
2022-09-07T19:29:05.902Z,22.34
2022-09-07T19:31:20.360Z,22.309999
2022-09-07T19:33:35.158Z,22.280001
2022-09-07T19:35:49.702Z,22.280001
2022-09-07T19:38:04.057Z,22.299999
2022-09-07T19:40:19.329Z,22.34
2022-09-07T19:42:32.864Z,22.389999
2022-09-07T19:44:47.210Z,22.42
2022-09-07T19:47:01.627Z,22.42
2022-09-07T19:49:15.965Z,22.41
2022-09-07T19:51:33.695Z,22.389999
2022-09-07T19:53:45.882Z,22.370001
2022-09-07T19:56:00.419Z,22.34
2022-09-07T19:58:14.827Z,22.33
2022-09-07T20:00:29.226Z,22.33
2022-09-07T20:02:43.624Z,22.32
2022-09-07T20:04:59.003Z,22.299999
2022-09-07T20:07:13.389Z,22.27
2022-09-07T20:09:28.752Z,22.23
2022-09-07T20:11:46.454Z,22.200001
2022-09-07T20:13:57.586Z,22.190001
2022-09-07T20:16:12.128Z,22.209999
2022-09-07T20:18:26.372Z,22.23
2022-09-07T20:20:40.736Z,22.25
2022-09-07T20:22:56.164Z,22.280001
2022-09-07T20:25:13.209Z,22.280001
2022-09-07T20:27:24.885Z,22.26
2022-09-07T20:29:39.309Z,22.24
2022-09-07T20:31:53.881Z,22.209999
2022-09-07T20:34:08.089Z,22.200001
2022-09-07T20:36:22.472Z,22.190001
2022-09-07T20:38:37.151Z,22.16
2022-09-07T20:40:51.598Z,22.139999
2022-09-07T20:43:05.917Z,22.129999
2022-09-07T20:45:20.310Z,22.110001
2022-09-07T20:47:37.657Z,22.1
2022-09-07T20:49:52.149Z,22.110001
2022-09-07T20:52:06.491Z,22.139999
2022-09-07T20:54:20.883Z,22.18
2022-09-07T20:56:35.305Z,22.209999
2022-09-07T20:58:49.724Z,22.26
2022-09-07T21:01:04.265Z,22.299999
2022-09-07T21:03:18.561Z,22.35
2022-09-07T21:05:32.982Z,22.389999
2022-09-07T21:07:47.385Z,22.43
2022-09-07T21:10:06.016Z,22.450001
2022-09-07T21:12:16.374Z,22.450001
2022-09-07T21:14:30.850Z,22.41
2022-09-07T21:16:45.825Z,22.35
2022-09-07T21:19:00.177Z,22.290001
2022-09-07T21:21:19.538Z,22.26
2022-09-07T21:23:30.043Z,22.24
2022-09-07T21:25:44.690Z,22.219999
2022-09-07T21:27:59.044Z,22.209999
